»·PEaware :: N660WC KFLL-MBPV

N660WC :: KFLL-MBPV

FLIGHT INFORMATION

Flight Status: Arrived
Operator: Privately registered:
United States
More flights under this callsign
Pilot: John H. (7647)
Aircraft: CESSNA T210 TURBO CENTURION
(T210)
More flights by this aircraft type
Origin: KFLL Ft Lauderdale-Hollywood Intl
United States
Destination: MBPV Providenciales Intl
Turks and Caicos Islands
More flights between these airports :: More routes between these airports
Route: ZQA ZLS WRECK
File this flight plan on PilotEdge
Remarks:
Altitude:
(Current/Filed)
5,000ft
Speed:
(Current/Filed)
170kts
Departed: 02-Jun-18 12:21 PM
Arrived: 02-Jun-18 03:45 PM
Distance/Time
Traveled:
504nm/3:24
Distance/Time
To Go:
Arrived

Flight Plot

Page will automatically refresh every two minutes.

Flight plan parsing failed; only flown route is shown


Map Options




Map Legend


Flown Route
Filed Route
Departure Airport
Arrival Airport
Navaid (VOR, NDB)
Fix

Horizontal Profiles

Position Reports

Time Latitude Longitude Heading Altitude Ground
Speed
02-Jun-18 12:17 26.075662 -80.158910 273 7ft 8kts
02-Jun-18 12:18 26.075679 -80.161188 273 7ft 10kts
02-Jun-18 12:19 26.075721 -80.165301 282 7ft 15kts
02-Jun-18 12:20 26.076939 -80.164548 93 7ft 0kts
02-Jun-18 12:21 26.077001 -80.158067 89 26ft 88kts
02-Jun-18 12:22 26.076197 -80.122833 119 761ft 132kts
02-Jun-18 12:23 26.053042 -80.093055 120 1739ft 124kts
02-Jun-18 12:24 26.038553 -80.058912 113 2721ft 122kts
02-Jun-18 12:25 26.025605 -80.024523 112 3682ft 123kts
02-Jun-18 12:26 26.016812 -80.001038 113 4341ft 123kts
02-Jun-18 12:27 26.003186 -79.964613 112 4974ft 141kts
02-Jun-18 12:28 25.988060 -79.924390 111 4969ft 140kts
02-Jun-18 12:29 25.973059 -79.884322 112 4980ft 141kts
02-Jun-18 12:30 25.957839 -79.843716 112 4976ft 143kts
02-Jun-18 12:31 25.942504 -79.802909 111 4971ft 143kts
02-Jun-18 12:32 25.927285 -79.762259 111 4975ft 142kts
02-Jun-18 12:33 25.912226 -79.722071 111 4988ft 143kts
02-Jun-18 12:34 25.896858 -79.681344 111 4964ft 142kts
02-Jun-18 12:35 25.881720 -79.640654 112 4978ft 143kts
02-Jun-18 12:36 25.867077 -79.600729 110 4972ft 142kts
02-Jun-18 12:37 25.851664 -79.559708 113 4972ft 146kts
02-Jun-18 12:38 25.835846 -79.518013 112 4977ft 146kts
02-Jun-18 12:39 25.819915 -79.475972 114 4973ft 148kts
02-Jun-18 12:40 25.803938 -79.433853 111 4975ft 147kts
02-Jun-18 12:41 25.788183 -79.392323 113 4969ft 144kts
02-Jun-18 12:42 25.772965 -79.352012 111 4972ft 145kts
02-Jun-18 12:43 25.757365 -79.311272 113 5007ft 142kts
02-Jun-18 12:44 25.741838 -79.270142 110 4976ft 146kts
02-Jun-18 12:45 25.726042 -79.228746 112 4992ft 149kts
02-Jun-18 12:46 25.709707 -79.185745 111 4970ft 151kts
02-Jun-18 12:47 25.693320 -79.142946 111 4986ft 152kts
02-Jun-18 12:48 25.676854 -79.099657 110 4992ft 152kts
02-Jun-18 12:49 25.660323 -79.056545 112 4973ft 151kts
02-Jun-18 12:50 25.643866 -79.013551 111 4968ft 152kts
02-Jun-18 12:51 25.627363 -78.970656 111 4970ft 151kts
02-Jun-18 12:52 25.611048 -78.928035 114 4978ft 150kts
02-Jun-18 12:53 25.594703 -78.885250 112 4963ft 150kts
02-Jun-18 12:54 25.578317 -78.842600 112 4973ft 152kts
02-Jun-18 12:55 25.561821 -78.799712 112 4974ft 151kts
02-Jun-18 12:56 25.545029 -78.756019 115 4997ft 156kts
02-Jun-18 12:57 25.527815 -78.711650 113 5005ft 158kts
02-Jun-18 12:58 25.510699 -78.667215 113 5003ft 156kts
02-Jun-18 12:59 25.493612 -78.623185 113 4995ft 156kts
02-Jun-18 13:00 25.476408 -78.578783 113 4995ft 157kts
02-Jun-18 13:01 25.459269 -78.534355 114 5009ft 157kts
02-Jun-18 13:02 25.441996 -78.489746 113 4987ft 157kts
02-Jun-18 13:03 25.424717 -78.445407 113 4995ft 160kts
02-Jun-18 13:04 25.407560 -78.401053 112 5007ft 155kts
02-Jun-18 13:05 25.390234 -78.356522 114 4992ft 158kts
02-Jun-18 13:06 25.373169 -78.312888 115 4998ft 158kts
02-Jun-18 13:07 25.355921 -78.268442 114 5014ft 156kts
02-Jun-18 13:08 25.338479 -78.223872 115 4987ft 156kts
02-Jun-18 13:09 25.321287 -78.179755 114 4994ft 157kts
02-Jun-18 13:10 25.303887 -78.135376 113 4995ft 157kts
02-Jun-18 13:11 25.289531 -78.098469 115 5009ft 156kts
02-Jun-18 13:12 25.272082 -78.054090 113 4999ft 157kts
02-Jun-18 13:13 25.254635 -78.009566 114 5011ft 159kts
02-Jun-18 13:14 25.236949 -77.964633 114 5005ft 161kts
02-Jun-18 13:15 25.219137 -77.919246 114 5006ft 161kts
02-Jun-18 13:16 25.201446 -77.874240 115 4994ft 160kts
02-Jun-18 13:17 25.183662 -77.829100 114 5008ft 159kts
02-Jun-18 13:18 25.165901 -77.784041 114 5019ft 159kts
02-Jun-18 13:19 25.148065 -77.738744 113 4996ft 160kts
02-Jun-18 13:20 25.130157 -77.693517 114 4993ft 161kts
02-Jun-18 13:21 25.112318 -77.648353 114 5015ft 160kts
02-Jun-18 13:22 25.094406 -77.603208 114 4995ft 159kts
02-Jun-18 13:23 25.076523 -77.557998 115 5008ft 162kts
02-Jun-18 13:24 25.058513 -77.512577 115 4983ft 160kts
02-Jun-18 13:25 25.040151 -77.467919 122 5001ft 160kts
02-Jun-18 13:26 25.014481 -77.427936 125 5026ft 159kts
02-Jun-18 13:27 24.988660 -77.388081 125 5010ft 159kts
02-Jun-18 13:28 24.962707 -77.347971 126 4983ft 161kts
02-Jun-18 13:29 24.936885 -77.308207 125 5007ft 159kts
02-Jun-18 13:30 24.911154 -77.268479 126 5011ft 159kts
02-Jun-18 13:31 24.885454 -77.228909 126 4985ft 159kts
02-Jun-18 13:32 24.859817 -77.189453 126 5001ft 158kts
02-Jun-18 13:33 24.834160 -77.149943 127 5007ft 159kts
02-Jun-18 13:34 24.808402 -77.110331 126 4981ft 160kts
02-Jun-18 13:35 24.782503 -77.070538 126 4984ft 161kts
02-Jun-18 13:36 24.756566 -77.030677 127 5008ft 160kts
02-Jun-18 13:37 24.730480 -76.990808 125 4993ft 159kts
02-Jun-18 13:38 24.704707 -76.951283 125 4985ft 159kts
02-Jun-18 13:39 24.678799 -76.911636 126 4995ft 160kts
02-Jun-18 13:40 24.652985 -76.872160 125 5004ft 160kts
02-Jun-18 13:41 24.626982 -76.832510 126 5006ft 160kts
02-Jun-18 13:42 24.600945 -76.792624 126 4996ft 160kts
02-Jun-18 13:43 24.575048 -76.753097 126 5011ft 160kts
02-Jun-18 13:44 24.549217 -76.713750 127 4993ft 158kts
02-Jun-18 13:45 24.523471 -76.674560 125 5008ft 158kts
02-Jun-18 13:46 24.497589 -76.635196 126 5001ft 160kts
02-Jun-18 13:47 24.471731 -76.595843 126 4994ft 158kts
02-Jun-18 13:48 24.445865 -76.556601 126 5009ft 158kts
02-Jun-18 13:49 24.419931 -76.517226 125 5017ft 157kts
02-Jun-18 13:50 24.394045 -76.477971 125 4985ft 159kts
02-Jun-18 13:51 24.368355 -76.439032 127 5007ft 158kts
02-Jun-18 13:52 24.342556 -76.399931 125 5001ft 157kts
02-Jun-18 13:53 24.316835 -76.360978 126 4992ft 158kts
02-Jun-18 13:54 24.290994 -76.321989 126 4996ft 159kts
02-Jun-18 13:55 24.265130 -76.282875 125 5006ft 158kts
02-Jun-18 13:56 24.239266 -76.243832 126 4988ft 158kts
02-Jun-18 13:57 24.213431 -76.204862 127 5016ft 158kts
02-Jun-18 13:58 24.187453 -76.165668 126 4999ft 159kts
02-Jun-18 13:59 24.161595 -76.126739 126 5005ft 158kts
02-Jun-18 14:00 24.135648 -76.087688 126 4993ft 158kts
02-Jun-18 14:01 24.109862 -76.048912 126 5000ft 158kts
02-Jun-18 14:02 24.083897 -76.009953 126 4992ft 157kts
02-Jun-18 14:03 24.058137 -75.971190 127 5010ft 157kts
02-Jun-18 14:04 24.032238 -75.932350 126 4997ft 158kts
02-Jun-18 14:05 24.006359 -75.893560 127 5004ft 158kts
02-Jun-18 14:06 23.980374 -75.854627 126 5001ft 158kts
02-Jun-18 14:07 23.954400 -75.815780 127 5003ft 157kts
02-Jun-18 14:08 23.928629 -75.777230 125 5003ft 158kts
02-Jun-18 14:09 23.902640 -75.738398 126 5012ft 157kts
02-Jun-18 14:10 23.876547 -75.699461 126 5006ft 160kts
02-Jun-18 14:11 23.850369 -75.660417 127 4991ft 159kts
02-Jun-18 14:12 23.824318 -75.621596 126 4992ft 159kts
02-Jun-18 14:13 23.798268 -75.582673 126 4996ft 159kts
02-Jun-18 14:14 23.772156 -75.543855 125 5007ft 158kts
02-Jun-18 14:15 23.746077 -75.505101 128 5004ft 159kts
02-Jun-18 14:16 23.719998 -75.466237 127 4996ft 158kts
02-Jun-18 14:17 23.693850 -75.427516 126 5001ft 159kts
02-Jun-18 14:18 23.667638 -75.388561 126 5005ft 159kts
02-Jun-18 14:19 23.641594 -75.349969 125 5005ft 158kts
02-Jun-18 14:20 23.615581 -75.311437 127 5000ft 158kts
02-Jun-18 14:21 23.589578 -75.272938 125 5001ft 157kts
02-Jun-18 14:22 23.559382 -75.238476 136 5001ft 158kts
02-Jun-18 14:23 23.527761 -75.205508 136 5017ft 157kts
02-Jun-18 14:24 23.496117 -75.172423 136 4993ft 156kts
02-Jun-18 14:25 23.464602 -75.139520 136 5001ft 157kts
02-Jun-18 14:26 23.433063 -75.106605 135 4985ft 157kts
02-Jun-18 14:27 23.401671 -75.073813 137 5002ft 156kts
02-Jun-18 14:28 23.370141 -75.040984 137 5006ft 158kts
02-Jun-18 14:29 23.338336 -75.007851 137 4996ft 158kts
02-Jun-18 14:30 23.306463 -74.974643 136 4993ft 158kts
02-Jun-18 14:31 23.274747 -74.941640 135 5009ft 159kts
02-Jun-18 14:32 23.242756 -74.908415 135 5012ft 158kts
02-Jun-18 14:33 23.211053 -74.875466 136 4999ft 158kts
02-Jun-18 14:34 23.179413 -74.842646 137 5009ft 157kts
02-Jun-18 14:35 23.147746 -74.809776 136 4991ft 157kts
02-Jun-18 14:36 23.116100 -74.776997 135 5008ft 158kts
02-Jun-18 14:37 23.084315 -74.744029 136 5003ft 157kts
02-Jun-18 14:38 23.052413 -74.711035 136 4982ft 159kts
02-Jun-18 14:39 23.020520 -74.678018 135 4998ft 158kts
02-Jun-18 14:40 22.988632 -74.645041 136 4992ft 158kts
02-Jun-18 14:41 22.956954 -74.612335 136 5012ft 157kts
02-Jun-18 14:42 22.925112 -74.579417 135 4991ft 158kts
02-Jun-18 14:43 22.893440 -74.546773 136 5003ft 157kts
02-Jun-18 14:44 22.861735 -74.514057 136 4999ft 158kts
02-Jun-18 14:45 22.829968 -74.481362 136 4999ft 157kts
02-Jun-18 14:46 22.798089 -74.448553 134 5015ft 156kts
02-Jun-18 14:47 22.766465 -74.416001 136 5004ft 157kts
02-Jun-18 14:48 22.739870 -74.388640 135 5004ft 158kts
02-Jun-18 14:49 22.708182 -74.356095 135 4993ft 157kts
02-Jun-18 14:50 22.678438 -74.325550 135 4992ft 158kts
02-Jun-18 14:51 22.646653 -74.292945 136 5011ft 159kts
02-Jun-18 14:52 22.614667 -74.260134 137 4997ft 158kts
02-Jun-18 14:53 22.582861 -74.227509 135 5008ft 158kts
02-Jun-18 14:54 22.550722 -74.194588 137 5007ft 158kts
02-Jun-18 14:55 22.518745 -74.161886 137 5002ft 158kts
02-Jun-18 14:56 22.486776 -74.129160 138 5001ft 158kts
02-Jun-18 14:57 22.454816 -74.096480 136 4996ft 157kts
02-Jun-18 14:58 22.423008 -74.064026 136 5010ft 156kts
02-Jun-18 14:59 22.391044 -74.031489 133 4929ft 162kts
02-Jun-18 15:00 22.358554 -73.998242 134 4950ft 160kts
02-Jun-18 15:01 22.325857 -73.964940 134 4948ft 160kts
02-Jun-18 15:02 22.292962 -73.931422 136 4938ft 162kts
02-Jun-18 15:03 22.260130 -73.898011 137 4887ft 163kts
02-Jun-18 15:04 22.227215 -73.864481 134 4930ft 164kts
02-Jun-18 15:05 22.194418 -73.831109 134 4945ft 164kts
02-Jun-18 15:06 22.161361 -73.797589 132 4937ft 167kts
02-Jun-18 15:07 22.128300 -73.764042 134 5005ft 163kts
02-Jun-18 15:08 22.095509 -73.730710 135 5027ft 158kts
02-Jun-18 15:09 22.063671 -73.698469 133 5036ft 156kts
02-Jun-18 15:10 22.032117 -73.666432 133 5008ft 155kts
02-Jun-18 15:11 22.000645 -73.634489 132 5020ft 158kts
02-Jun-18 15:12 21.969167 -73.602608 132 5032ft 156kts
02-Jun-18 15:13 21.937427 -73.570621 132 5048ft 157kts
02-Jun-18 15:14 21.905408 -73.538217 133 4990ft 156kts
02-Jun-18 15:15 21.874186 -73.506684 132 4991ft 155kts
02-Jun-18 15:16 21.843959 -73.473791 110 4981ft 153kts
02-Jun-18 15:17 21.839095 -73.428451 96 4994ft 152kts
02-Jun-18 15:18 21.835960 -73.382783 89 5003ft 153kts
02-Jun-18 15:19 21.833901 -73.335180 91 4642ft 166kts
02-Jun-18 15:20 21.831112 -73.293644 89 4191ft 167kts
02-Jun-18 15:21 21.828819 -73.244419 95 3677ft 166kts
02-Jun-18 15:22 21.826606 -73.195147 90 3274ft 165kts
02-Jun-18 15:23 21.824388 -73.145509 88 2824ft 165kts
02-Jun-18 15:24 21.821516 -73.096095 94 2288ft 164kts
02-Jun-18 15:25 21.819233 -73.047424 85 2008ft 155kts
02-Jun-18 15:26 21.817143 -73.002120 94 1983ft 151kts
02-Jun-18 15:27 21.814319 -72.960592 93 1955ft 152kts
02-Jun-18 15:28 21.811238 -72.915331 96 1970ft 154kts
02-Jun-18 15:29 21.808911 -72.869665 89 2019ft 153kts
02-Jun-18 15:30 21.806365 -72.824527 97 2003ft 150kts
02-Jun-18 15:31 21.803716 -72.779745 88 2022ft 151kts
02-Jun-18 15:32 21.801268 -72.734225 88 1996ft 152kts
02-Jun-18 15:33 21.798576 -72.687353 91 1605ft 163kts
02-Jun-18 15:34 21.795547 -72.638356 93 1070ft 163kts
02-Jun-18 15:35 21.792847 -72.591826 92 994ft 152kts
02-Jun-18 15:36 21.790509 -72.547166 92 1000ft 148kts
02-Jun-18 15:37 21.788036 -72.504737 92 987ft 148kts
02-Jun-18 15:38 21.785653 -72.460806 89 985ft 149kts
02-Jun-18 15:39 21.782967 -72.416051 90 998ft 149kts
02-Jun-18 15:40 21.780351 -72.371564 91 1002ft 148kts
02-Jun-18 15:41 21.777821 -72.329934 90 1087ft 112kts
02-Jun-18 15:42 21.775891 -72.303490 93 538ft 79kts
02-Jun-18 15:43 21.774469 -72.281032 90 211ft 70kts
02-Jun-18 15:44 21.773761 -72.263297 99 25ft 43kts
02-Jun-18 15:45 21.774720 -72.260554 268 23ft 11kts
02-Jun-18 15:46 21.774935 -72.261440 267 23ft 0kts

Navigation Log

Ident Type
Flight plan parsing failed, navigation log unavailable